ETD261 OIIE-UTAA
Flight info
| Callsign | ETD261 |
|---|---|
| Flight time | 1h 2m |
| Altitude | 37000 |
| Route | DHN B451 BRD L720 RIKOP RIK29A |
| Aircraft | A346/H-SDE2E3FGHIJ3J4J5M1RWXY/LB1D1 |
Departure
| Time | 2026-05-08 14:09 |
|---|---|
| Airport | Imam Khomeini International Airport (OIIE) |
Arrival
| Time | 2026-05-08 15:11 |
|---|---|
| Airport | Ashgabat International Airport (UTAA) |
| Time | Latitude | Longitude | Altitude | Speed | Heading |
|---|---|---|---|---|---|
| 2026-05-08 13:38 | 35.41028 | 51.15603 | 3278 ft | 0 kts | 193° |
| 2026-05-08 13:54 | 35.41035 | 51.15605 | 3279 ft | 4 kts | 197° |
| 2026-05-08 13:54 | 35.41058 | 51.15617 | 3277 ft | 4 kts | 217° |
| 2026-05-08 13:54 | 35.41073 | 51.15637 | 3274 ft | 4 kts | 246° |
| 2026-05-08 13:54 | 35.41077 | 51.15664 | 3274 ft | 4 kts | 275° |
| 2026-05-08 13:55 | 35.41072 | 51.15691 | 3274 ft | 1 kts | 288° |
| 2026-05-08 13:58 | 35.41074 | 51.15684 | 3274 ft | 3 kts | 287° |
| 2026-05-08 13:58 | 35.41084 | 51.15644 | 3274 ft | 7 kts | 288° |
| 2026-05-08 13:58 | 35.41107 | 51.15560 | 3276 ft | 12 kts | 289° |
| 2026-05-08 13:58 | 35.41136 | 51.15460 | 3279 ft | 13 kts | 290° |
| 2026-05-08 13:59 | 35.41166 | 51.15353 | 3278 ft | 14 kts | 288° |
| 2026-05-08 13:59 | 35.41198 | 51.15236 | 3282 ft | 15 kts | 289° |
| 2026-05-08 13:59 | 35.41255 | 51.15149 | 3277 ft | 12 kts | 348° |
| 2026-05-08 13:59 | 35.41353 | 51.15176 | 3273 ft | 16 kts | 18° |
| 2026-05-08 14:00 | 35.41458 | 51.15216 | 3281 ft | 15 kts | 6° |
| 2026-05-08 14:00 | 35.41533 | 51.15145 | 3283 ft | 16 kts | 292° |
| 2026-05-08 14:00 | 35.41571 | 51.15011 | 3284 ft | 17 kts | 289° |
| 2026-05-08 14:00 | 35.41609 | 51.14875 | 3289 ft | 17 kts | 289° |
| 2026-05-08 14:01 | 35.41650 | 51.14728 | 3290 ft | 20 kts | 289° |
| 2026-05-08 14:01 | 35.41699 | 51.14559 | 3292 ft | 22 kts | 290° |
| 2026-05-08 14:01 | 35.41750 | 51.14376 | 3286 ft | 24 kts | 288° |
| 2026-05-08 14:01 | 35.41803 | 51.14181 | 3293 ft | 24 kts | 289° |
| 2026-05-08 14:02 | 35.41857 | 51.13987 | 3296 ft | 24 kts | 288° |
| 2026-05-08 14:02 | 35.41911 | 51.13791 | 3301 ft | 24 kts | 289° |
| 2026-05-08 14:02 | 35.41965 | 51.13602 | 3305 ft | 23 kts | 289° |
| 2026-05-08 14:02 | 35.41973 | 51.13573 | 3305 ft | 23 kts | 289° |
| 2026-05-08 14:03 | 35.42022 | 51.13396 | 3312 ft | 22 kts | 289° |
| 2026-05-08 14:03 | 35.42074 | 51.13213 | 3313 ft | 24 kts | 289° |
| 2026-05-08 14:03 | 35.42127 | 51.13019 | 3314 ft | 24 kts | 288° |
| 2026-05-08 14:03 | 35.42184 | 51.12815 | 3313 ft | 26 kts | 289° |
| 2026-05-08 14:04 | 35.42242 | 51.12609 | 3318 ft | 25 kts | 289° |
| 2026-05-08 14:04 | 35.42294 | 51.12419 | 3320 ft | 20 kts | 289° |
| 2026-05-08 14:04 | 35.42336 | 51.12266 | 3324 ft | 19 kts | 289° |
| 2026-05-08 14:04 | 35.42393 | 51.12186 | 3324 ft | 9 kts | 355° |
| 2026-05-08 14:05 | 35.42413 | 51.12191 | 3324 ft | 0 kts | 13° |
| 2026-05-08 14:05 | 35.42421 | 51.12194 | 3324 ft | 3 kts | 13° |
| 2026-05-08 14:05 | 35.42448 | 51.12202 | 3325 ft | 4 kts | 14° |
| 2026-05-08 14:05 | 35.42474 | 51.12211 | 3326 ft | 4 kts | 19° |
| 2026-05-08 14:06 | 35.42500 | 51.12221 | 3326 ft | 4 kts | 19° |
| 2026-05-08 14:06 | 35.42520 | 51.12240 | 3327 ft | 4 kts | 61° |
| 2026-05-08 14:06 | 35.42519 | 51.12277 | 3326 ft | 6 kts | 107° |
| 2026-05-08 14:06 | 35.42515 | 51.12290 | 3326 ft | 1 kts | 108° |
| 2026-05-08 14:07 | 35.42515 | 51.12291 | 3326 ft | 0 kts | 108° |
| 2026-05-08 14:08 | 35.42506 | 51.12322 | 3326 ft | 19 kts | 108° |
| 2026-05-08 14:08 | 35.42386 | 51.12757 | 3317 ft | 87 kts | 109° |
| 2026-05-08 14:09 | 35.42124 | 51.13699 | 3309 ft | 144 kts | 109° |
| 2026-05-08 14:09 | 35.41738 | 51.15020 | 3509 ft | 172 kts | 108° |
| 2026-05-08 14:09 | 35.41333 | 51.16377 | 4210 ft | 168 kts | 111° |
| 2026-05-08 14:09 | 35.40956 | 51.17766 | 4589 ft | 182 kts | 111° |
| 2026-05-08 14:10 | 35.40679 | 51.19359 | 4966 ft | 200 kts | 101° |
| 2026-05-08 14:10 | 35.40522 | 51.21112 | 5311 ft | 214 kts | 98° |
| 2026-05-08 14:10 | 35.40372 | 51.23007 | 5577 ft | 230 kts | 98° |
| 2026-05-08 14:10 | 35.40222 | 51.25028 | 5854 ft | 247 kts | 99° |
| 2026-05-08 14:11 | 35.40037 | 51.27204 | 6177 ft | 265 kts | 99° |
| 2026-05-08 14:11 | 35.39829 | 51.29524 | 6537 ft | 282 kts | 98° |
| 2026-05-08 14:11 | 35.39609 | 51.31968 | 7059 ft | 291 kts | 99° |
| 2026-05-08 14:11 | 35.39381 | 51.34454 | 7721 ft | 295 kts | 99° |
| 2026-05-08 14:12 | 35.39145 | 51.36967 | 8512 ft | 296 kts | 99° |
| 2026-05-08 14:12 | 35.38906 | 51.39484 | 9355 ft | 298 kts | 99° |
| 2026-05-08 14:12 | 35.38664 | 51.42024 | 10151 ft | 301 kts | 99° |
| 2026-05-08 14:12 | 35.38415 | 51.44609 | 10758 ft | 312 kts | 99° |
| 2026-05-08 14:13 | 35.38154 | 51.47294 | 11176 ft | 330 kts | 99° |
| 2026-05-08 14:13 | 35.37868 | 51.50214 | 11608 ft | 350 kts | 99° |
| 2026-05-08 14:13 | 35.37576 | 51.53220 | 12034 ft | 368 kts | 99° |
| 2026-05-08 14:13 | 35.37264 | 51.56412 | 12478 ft | 385 kts | 99° |
| 2026-05-08 14:14 | 35.36942 | 51.59720 | 13152 ft | 395 kts | 99° |
| 2026-05-08 14:14 | 35.36615 | 51.63092 | 13981 ft | 401 kts | 99° |
| 2026-05-08 14:14 | 35.36281 | 51.66519 | 14749 ft | 406 kts | 99° |
| 2026-05-08 14:14 | 35.35941 | 51.69990 | 15479 ft | 413 kts | 99° |
| 2026-05-08 14:15 | 35.35594 | 51.73515 | 16220 ft | 420 kts | 99° |
| 2026-05-08 14:15 | 35.35239 | 51.77097 | 16950 ft | 426 kts | 100° |
| 2026-05-08 14:15 | 35.34877 | 51.80737 | 17681 ft | 433 kts | 100° |
| 2026-05-08 14:15 | 35.34510 | 51.84431 | 18405 ft | 439 kts | 101° |
| 2026-05-08 14:16 | 35.34136 | 51.88174 | 19040 ft | 445 kts | 101° |
| 2026-05-08 14:16 | 35.33754 | 51.91957 | 19707 ft | 449 kts | 101° |
| 2026-05-08 14:16 | 35.33367 | 51.95777 | 20410 ft | 453 kts | 101° |
| 2026-05-08 14:16 | 35.32977 | 51.99628 | 21083 ft | 457 kts | 101° |
| 2026-05-08 14:17 | 35.32582 | 52.03511 | 21733 ft | 462 kts | 101° |
| 2026-05-08 14:17 | 35.32180 | 52.07459 | 22363 ft | 467 kts | 101° |
| 2026-05-08 14:17 | 35.31782 | 52.11369 | 23081 ft | 470 kts | 101° |
| 2026-05-08 14:17 | 35.31373 | 52.15362 | 23713 ft | 474 kts | 101° |
| 2026-05-08 14:18 | 35.30960 | 52.19398 | 24228 ft | 479 kts | 102° |
| 2026-05-08 14:18 | 35.30542 | 52.23468 | 24717 ft | 484 kts | 102° |
| 2026-05-08 14:18 | 35.30118 | 52.27583 | 25220 ft | 489 kts | 102° |
| 2026-05-08 14:18 | 35.29687 | 52.31745 | 25733 ft | 493 kts | 103° |
| 2026-05-08 14:19 | 35.29250 | 52.35933 | 26245 ft | 498 kts | 103° |
| 2026-05-08 14:19 | 35.28809 | 52.40152 | 26762 ft | 500 kts | 104° |
| 2026-05-08 14:19 | 35.28368 | 52.44374 | 27590 ft | 497 kts | 104° |
| 2026-05-08 14:19 | 35.27927 | 52.48573 | 28193 ft | 499 kts | 104° |
| 2026-05-08 14:20 | 35.27474 | 52.52828 | 28647 ft | 505 kts | 105° |
| 2026-05-08 14:20 | 35.27169 | 52.55659 | 28937 ft | 508 kts | 105° |
| 2026-05-08 14:20 | 35.26711 | 52.59967 | 29454 ft | 512 kts | 104° |
| 2026-05-08 14:20 | 35.26505 | 52.64357 | 30115 ft | 519 kts | 96° |
| 2026-05-08 14:21 | 35.26731 | 52.68799 | 30717 ft | 525 kts | 89° |
| 2026-05-08 14:21 | 35.27416 | 52.73231 | 31307 ft | 532 kts | 81° |
| 2026-05-08 14:21 | 35.28564 | 52.77559 | 31873 ft | 537 kts | 72° |
| 2026-05-08 14:21 | 35.30171 | 52.81719 | 32404 ft | 541 kts | 63° |
| 2026-05-08 14:22 | 35.32118 | 52.85682 | 32950 ft | 543 kts | 60° |
| 2026-05-08 14:22 | 35.34168 | 52.89598 | 33416 ft | 545 kts | 59° |
| 2026-05-08 14:22 | 35.36226 | 52.93502 | 33910 ft | 545 kts | 59° |
| 2026-05-08 14:22 | 35.38276 | 52.97429 | 34379 ft | 545 kts | 60° |
| 2026-05-08 14:23 | 35.40297 | 53.01364 | 34813 ft | 546 kts | 60° |
| 2026-05-08 14:23 | 35.42309 | 53.05333 | 35184 ft | 548 kts | 60° |
| 2026-05-08 14:23 | 35.44318 | 53.09315 | 35513 ft | 551 kts | 60° |
| 2026-05-08 14:23 | 35.46341 | 53.13329 | 35824 ft | 554 kts | 60° |
| 2026-05-08 14:24 | 35.48371 | 53.17361 | 36112 ft | 557 kts | 59° |
| 2026-05-08 14:24 | 35.50412 | 53.21420 | 36450 ft | 559 kts | 59° |
| 2026-05-08 14:24 | 35.52463 | 53.25501 | 36700 ft | 562 kts | 59° |
| 2026-05-08 14:24 | 35.54519 | 53.29600 | 36955 ft | 564 kts | 59° |
| 2026-05-08 14:25 | 35.56580 | 53.33711 | 36965 ft | 565 kts | 59° |
| 2026-05-08 14:25 | 35.60707 | 53.41949 | 36984 ft | 566 kts | 59° |
| 2026-05-08 14:26 | 35.64813 | 53.50156 | 36986 ft | 566 kts | 59° |
| 2026-05-08 14:26 | 35.68932 | 53.58417 | 36984 ft | 566 kts | 59° |
| 2026-05-08 14:27 | 35.73043 | 53.66679 | 36981 ft | 566 kts | 59° |
| 2026-05-08 14:27 | 35.77153 | 53.74961 | 36978 ft | 565 kts | 59° |
| 2026-05-08 14:28 | 35.81231 | 53.83202 | 36999 ft | 561 kts | 59° |
| 2026-05-08 14:28 | 35.85286 | 53.91411 | 36992 ft | 560 kts | 59° |
| 2026-05-08 14:29 | 35.89335 | 53.99629 | 36978 ft | 560 kts | 60° |
| 2026-05-08 14:29 | 35.93380 | 54.07859 | 36957 ft | 560 kts | 60° |
| 2026-05-08 14:30 | 35.97414 | 54.16087 | 36937 ft | 560 kts | 60° |
| 2026-05-08 14:30 | 36.01440 | 54.24320 | 36940 ft | 560 kts | 60° |
| 2026-05-08 14:31 | 36.05459 | 54.32565 | 36930 ft | 559 kts | 60° |
| 2026-05-08 14:31 | 36.09479 | 54.40822 | 36913 ft | 559 kts | 60° |
| 2026-05-08 14:32 | 36.15491 | 54.53200 | 36912 ft | 558 kts | 60° |
| 2026-05-08 14:32 | 36.19485 | 54.61435 | 36918 ft | 557 kts | 60° |
| 2026-05-08 14:33 | 36.23473 | 54.69676 | 36921 ft | 557 kts | 60° |
| 2026-05-08 14:33 | 36.27446 | 54.77914 | 36924 ft | 556 kts | 59° |
| 2026-05-08 14:34 | 36.31408 | 54.86149 | 36985 ft | 555 kts | 59° |
| 2026-05-08 14:34 | 36.35360 | 54.94380 | 36984 ft | 554 kts | 60° |
| 2026-05-08 14:35 | 36.39298 | 55.02605 | 36991 ft | 554 kts | 59° |
| 2026-05-08 14:35 | 36.43214 | 55.10786 | 36998 ft | 553 kts | 59° |
| 2026-05-08 14:36 | 36.47243 | 55.18925 | 37016 ft | 553 kts | 58° |
| 2026-05-08 14:36 | 36.51285 | 55.27076 | 37009 ft | 553 kts | 58° |
| 2026-05-08 14:37 | 36.55296 | 55.35232 | 37018 ft | 551 kts | 58° |
| 2026-05-08 14:37 | 36.59290 | 55.43362 | 37043 ft | 550 kts | 58° |
| 2026-05-08 14:38 | 36.63280 | 55.51510 | 37038 ft | 550 kts | 58° |
| 2026-05-08 14:38 | 36.67263 | 55.59669 | 37038 ft | 551 kts | 58° |
| 2026-05-08 14:39 | 36.71254 | 55.67840 | 37037 ft | 551 kts | 58° |
| 2026-05-08 14:39 | 36.75238 | 55.76020 | 37030 ft | 551 kts | 58° |
| 2026-05-08 14:40 | 36.79197 | 55.84183 | 37020 ft | 548 kts | 58° |
| 2026-05-08 14:40 | 36.83135 | 55.92312 | 37036 ft | 546 kts | 58° |
| 2026-05-08 14:41 | 36.87065 | 56.00440 | 37027 ft | 546 kts | 58° |
| 2026-05-08 14:41 | 36.90993 | 56.08584 | 37028 ft | 547 kts | 58° |
| 2026-05-08 14:42 | 36.94900 | 56.16706 | 36358 ft | 545 kts | 58° |
| 2026-05-08 14:42 | 36.96879 | 56.20817 | 35391 ft | 554 kts | 59° |
| 2026-05-08 14:42 | 36.98872 | 56.24961 | 34735 ft | 555 kts | 59° |
| 2026-05-08 14:43 | 37.00851 | 56.29092 | 34234 ft | 553 kts | 60° |
| 2026-05-08 14:43 | 37.02820 | 56.33214 | 33706 ft | 549 kts | 60° |
| 2026-05-08 14:43 | 37.04775 | 56.37316 | 33124 ft | 546 kts | 60° |
| 2026-05-08 14:43 | 37.06719 | 56.41394 | 32598 ft | 544 kts | 60° |
| 2026-05-08 14:44 | 37.08633 | 56.45409 | 31912 ft | 544 kts | 60° |
| 2026-05-08 14:44 | 37.10603 | 56.49553 | 31138 ft | 546 kts | 60° |
| 2026-05-08 14:44 | 37.12550 | 56.53653 | 30406 ft | 548 kts | 61° |
| 2026-05-08 14:44 | 37.14479 | 56.57721 | 29647 ft | 549 kts | 61° |
| 2026-05-08 14:45 | 37.16427 | 56.61838 | 28888 ft | 547 kts | 60° |
| 2026-05-08 14:45 | 37.18363 | 56.65932 | 28214 ft | 544 kts | 60° |
| 2026-05-08 14:45 | 37.20289 | 56.70004 | 27685 ft | 538 kts | 60° |
| 2026-05-08 14:45 | 37.22188 | 56.74023 | 27220 ft | 531 kts | 60° |
| 2026-05-08 14:46 | 37.24056 | 56.77984 | 26779 ft | 524 kts | 60° |
| 2026-05-08 14:46 | 37.25903 | 56.81906 | 26353 ft | 517 kts | 60° |
| 2026-05-08 14:46 | 37.27725 | 56.85779 | 25932 ft | 510 kts | 60° |
| 2026-05-08 14:46 | 37.29518 | 56.89594 | 25535 ft | 504 kts | 60° |
| 2026-05-08 14:47 | 37.31294 | 56.93367 | 25138 ft | 497 kts | 60° |
| 2026-05-08 14:47 | 37.33046 | 56.97090 | 24732 ft | 492 kts | 60° |
| 2026-05-08 14:47 | 37.34776 | 57.00770 | 24306 ft | 486 kts | 60° |
| 2026-05-08 14:47 | 37.36485 | 57.04413 | 23892 ft | 482 kts | 60° |
| 2026-05-08 14:48 | 37.38181 | 57.08031 | 23433 ft | 477 kts | 60° |
| 2026-05-08 14:48 | 37.39857 | 57.11614 | 22973 ft | 472 kts | 60° |
| 2026-05-08 14:48 | 37.41510 | 57.15161 | 22533 ft | 467 kts | 60° |
| 2026-05-08 14:48 | 37.43156 | 57.18685 | 22102 ft | 462 kts | 60° |
| 2026-05-08 14:49 | 37.44776 | 57.22154 | 21732 ft | 458 kts | 60° |
| 2026-05-08 14:49 | 37.46361 | 57.25555 | 21337 ft | 453 kts | 60° |
| 2026-05-08 14:49 | 37.47942 | 57.28984 | 20929 ft | 449 kts | 62° |
| 2026-05-08 14:49 | 37.49289 | 57.32503 | 20528 ft | 444 kts | 69° |
| 2026-05-08 14:50 | 37.50311 | 57.36147 | 20161 ft | 438 kts | 75° |
| 2026-05-08 14:50 | 37.51090 | 57.39842 | 19771 ft | 432 kts | 78° |
| 2026-05-08 14:50 | 37.51800 | 57.43505 | 19388 ft | 428 kts | 78° |
| 2026-05-08 14:50 | 37.52498 | 57.47148 | 18991 ft | 425 kts | 78° |
| 2026-05-08 14:51 | 37.53195 | 57.50758 | 18595 ft | 422 kts | 78° |
| 2026-05-08 14:51 | 37.53892 | 57.54344 | 18173 ft | 419 kts | 78° |
| 2026-05-08 14:51 | 37.54588 | 57.57899 | 17748 ft | 416 kts | 78° |
| 2026-05-08 14:51 | 37.55280 | 57.61427 | 17330 ft | 412 kts | 78° |
| 2026-05-08 14:52 | 37.55964 | 57.64912 | 17090 ft | 405 kts | 78° |
| 2026-05-08 14:52 | 37.57306 | 57.71768 | 17074 ft | 399 kts | 78° |
| 2026-05-08 14:52 | 37.57971 | 57.75166 | 17064 ft | 398 kts | 78° |
| 2026-05-08 14:53 | 37.58631 | 57.78550 | 17064 ft | 396 kts | 78° |
| 2026-05-08 14:53 | 37.59289 | 57.81930 | 17065 ft | 395 kts | 78° |
| 2026-05-08 14:53 | 37.59945 | 57.85304 | 17067 ft | 395 kts | 78° |
| 2026-05-08 14:53 | 37.60600 | 57.88671 | 17068 ft | 395 kts | 78° |
| 2026-05-08 14:54 | 37.61252 | 57.92036 | 17062 ft | 396 kts | 78° |
| 2026-05-08 14:54 | 37.61914 | 57.95463 | 17054 ft | 404 kts | 78° |
| 2026-05-08 14:54 | 37.62580 | 57.98908 | 17051 ft | 402 kts | 78° |
| 2026-05-08 14:54 | 37.63240 | 58.02325 | 17054 ft | 400 kts | 78° |
| 2026-05-08 14:55 | 37.63897 | 58.05732 | 17059 ft | 397 kts | 78° |
| 2026-05-08 14:55 | 37.64537 | 58.09050 | 17056 ft | 381 kts | 78° |
| 2026-05-08 14:55 | 37.65151 | 58.12236 | 17056 ft | 365 kts | 78° |
| 2026-05-08 14:55 | 37.65736 | 58.15286 | 17058 ft | 349 kts | 78° |
| 2026-05-08 14:56 | 37.66295 | 58.18205 | 17050 ft | 333 kts | 78° |
| 2026-05-08 14:56 | 37.66823 | 58.20980 | 17048 ft | 317 kts | 78° |
| 2026-05-08 14:56 | 37.67379 | 58.23632 | 17048 ft | 311 kts | 69° |
| 2026-05-08 14:56 | 37.68433 | 58.26000 | 17060 ft | 307 kts | 50° |
| 2026-05-08 14:57 | 37.69822 | 58.28020 | 16780 ft | 304 kts | 46° |
| 2026-05-08 14:57 | 37.71284 | 58.29973 | 16390 ft | 306 kts | 45° |
| 2026-05-08 14:57 | 37.72753 | 58.31921 | 16064 ft | 306 kts | 45° |
| 2026-05-08 14:57 | 37.74213 | 58.33884 | 15756 ft | 306 kts | 46° |
| 2026-05-08 14:58 | 37.75655 | 58.35850 | 15470 ft | 304 kts | 46° |
| 2026-05-08 14:58 | 37.77083 | 58.37811 | 15198 ft | 301 kts | 47° |
| 2026-05-08 14:58 | 37.78475 | 58.39737 | 14893 ft | 300 kts | 47° |
| 2026-05-08 14:58 | 37.79883 | 58.41688 | 14595 ft | 299 kts | 47° |
| 2026-05-08 14:59 | 37.81279 | 58.43623 | 14315 ft | 298 kts | 47° |
| 2026-05-08 14:59 | 37.84059 | 58.47482 | 13724 ft | 295 kts | 47° |
| 2026-05-08 14:59 | 37.85436 | 58.49396 | 13379 ft | 293 kts | 47° |
| 2026-05-08 15:00 | 37.86803 | 58.51299 | 13051 ft | 292 kts | 47° |
| 2026-05-08 15:00 | 37.88171 | 58.53201 | 12720 ft | 290 kts | 47° |
| 2026-05-08 15:00 | 37.89529 | 58.55092 | 12403 ft | 288 kts | 47° |
| 2026-05-08 15:00 | 37.90876 | 58.56968 | 12117 ft | 286 kts | 48° |
| 2026-05-08 15:01 | 37.92208 | 58.58824 | 11873 ft | 282 kts | 48° |
| 2026-05-08 15:01 | 37.93517 | 58.60657 | 11621 ft | 278 kts | 51° |
| 2026-05-08 15:01 | 37.94422 | 58.62757 | 11361 ft | 269 kts | 78° |
| 2026-05-08 15:01 | 37.94819 | 58.65043 | 11154 ft | 262 kts | 83° |
| 2026-05-08 15:02 | 37.95142 | 58.67300 | 10928 ft | 258 kts | 83° |
| 2026-05-08 15:02 | 37.95355 | 58.68779 | 10750 ft | 257 kts | 83° |
| 2026-05-08 15:02 | 37.95690 | 58.71017 | 10371 ft | 260 kts | 82° |
| 2026-05-08 15:02 | 37.96164 | 58.74054 | 9697 ft | 271 kts | 82° |
| 2026-05-08 15:03 | 37.96492 | 58.76448 | 9124 ft | 277 kts | 92° |
| 2026-05-08 15:03 | 37.96049 | 58.78781 | 8511 ft | 274 kts | 126° |
| 2026-05-08 15:03 | 37.95259 | 58.80027 | 8170 ft | 274 kts | 140° |
| 2026-05-08 15:03 | 37.93654 | 58.81329 | 7488 ft | 270 kts | 165° |
| 2026-05-08 15:04 | 37.91822 | 58.81407 | 6922 ft | 265 kts | 196° |
| 2026-05-08 15:04 | 37.90256 | 58.80223 | 6387 ft | 266 kts | 226° |
| 2026-05-08 15:04 | 37.89398 | 58.78176 | 5930 ft | 264 kts | 257° |
| 2026-05-08 15:04 | 37.89442 | 58.75891 | 5553 ft | 259 kts | 283° |
| 2026-05-08 15:05 | 37.89972 | 58.73742 | 5222 ft | 251 kts | 286° |
| 2026-05-08 15:05 | 37.90521 | 58.71670 | 4865 ft | 245 kts | 286° |
| 2026-05-08 15:05 | 37.91057 | 58.69647 | 4500 ft | 239 kts | 286° |
| 2026-05-08 15:05 | 37.91575 | 58.67693 | 4139 ft | 234 kts | 287° |
| 2026-05-08 15:06 | 37.92082 | 58.65769 | 3829 ft | 227 kts | 287° |
| 2026-05-08 15:06 | 37.92576 | 58.63906 | 3741 ft | 220 kts | 287° |
| 2026-05-08 15:06 | 37.93049 | 58.62124 | 3681 ft | 208 kts | 287° |
| 2026-05-08 15:06 | 37.93344 | 58.60368 | 3483 ft | 200 kts | 268° |
| 2026-05-08 15:07 | 37.93120 | 58.58674 | 3342 ft | 191 kts | 254° |
| 2026-05-08 15:07 | 37.92762 | 58.57072 | 3176 ft | 188 kts | 252° |
| 2026-05-08 15:07 | 37.92386 | 58.55478 | 2909 ft | 188 kts | 252° |
| 2026-05-08 15:07 | 37.92018 | 58.53894 | 2662 ft | 184 kts | 255° |
| 2026-05-08 15:08 | 37.92017 | 58.52348 | 2498 ft | 172 kts | 287° |
| 2026-05-08 15:08 | 37.92508 | 58.50980 | 2514 ft | 170 kts | 301° |
| 2026-05-08 15:08 | 37.93127 | 58.49703 | 2514 ft | 170 kts | 302° |
| 2026-05-08 15:08 | 37.93743 | 58.48425 | 2485 ft | 170 kts | 301° |
| 2026-05-08 15:09 | 37.94321 | 58.47156 | 2261 ft | 161 kts | 301° |
| 2026-05-08 15:09 | 37.94863 | 58.45933 | 2056 ft | 157 kts | 300° |
| 2026-05-08 15:09 | 37.95395 | 58.44728 | 1863 ft | 156 kts | 300° |
| 2026-05-08 15:09 | 37.95928 | 58.43523 | 1680 ft | 156 kts | 301° |
| 2026-05-08 15:10 | 37.96458 | 58.42325 | 1460 ft | 155 kts | 301° |
| 2026-05-08 15:10 | 37.96986 | 58.41135 | 1269 ft | 155 kts | 300° |
| 2026-05-08 15:10 | 37.97517 | 58.39948 | 1049 ft | 154 kts | 297° |
| 2026-05-08 15:10 | 37.98041 | 58.38768 | 831 ft | 153 kts | 297° |
| 2026-05-08 15:11 | 37.98565 | 58.37592 | 686 ft | 150 kts | 296° |
| 2026-05-08 15:11 | 37.98988 | 58.36634 | 683 ft | 93 kts | 299° |
| 2026-05-08 15:11 | 37.99198 | 58.36163 | 683 ft | 34 kts | 299° |
| 2026-05-08 15:11 | 37.99307 | 58.35919 | 683 ft | 23 kts | 299° |
| 2026-05-08 15:12 | 37.99357 | 58.35730 | 688 ft | 18 kts | 272° |
| 2026-05-08 15:12 | 37.99361 | 58.35607 | 681 ft | 16 kts | 272° |
| 2026-05-08 15:12 | 37.99315 | 58.35497 | 680 ft | 15 kts | 193° |
| 2026-05-08 15:12 | 37.99224 | 58.35574 | 680 ft | 15 kts | 121° |
| 2026-05-08 15:13 | 37.99167 | 58.35703 | 681 ft | 19 kts | 119° |
| 2026-05-08 15:13 | 37.99097 | 58.35859 | 680 ft | 22 kts | 119° |
| 2026-05-08 15:13 | 37.99018 | 58.36035 | 686 ft | 24 kts | 120° |
| 2026-05-08 15:13 | 37.98955 | 58.36174 | 683 ft | 12 kts | 119° |
| 2026-05-08 15:14 | 37.98908 | 58.36281 | 683 ft | 16 kts | 119° |
| 2026-05-08 15:14 | 37.98847 | 58.36416 | 684 ft | 19 kts | 120° |
| 2026-05-08 15:14 | 37.98794 | 58.36536 | 684 ft | 13 kts | 120° |
| 2026-05-08 15:14 | 37.98735 | 58.36635 | 681 ft | 16 kts | 153° |
| 2026-05-08 15:15 | 37.98628 | 58.36604 | 685 ft | 18 kts | 210° |
| 2026-05-08 15:15 | 37.98555 | 58.36552 | 685 ft | 13 kts | 209° |
| 2026-05-08 15:15 | 37.98493 | 58.36512 | 681 ft | 7 kts | 190° |
| 2026-05-08 15:15 | 37.98450 | 58.36550 | 681 ft | 6 kts | 121° |
| 2026-05-08 15:16 | 37.98432 | 58.36588 | 680 ft | 4 kts | 121° |
| 2026-05-08 15:16 | 37.98424 | 58.36605 | 684 ft | 2 kts | 120° |
| 2026-05-08 15:16 | 37.98421 | 58.36612 | 681 ft | 0 kts | 120° |